Terminal Aerodrome Forecast
Issued by NWS

Home | Current Version | Previous Version | Graphics & Text | Print | Product List | Glossary On
Versions: 1 2 3 4 5 6 7 8 9 10 11 12 13 14 15 16
000
FTUS43 KGRB 081800 AAA
TAFCWA
TAF AMD
KCWA 081816Z 0818/0918 30014G25KT P6SM VCSH SCT025 BKN035
      TEMPO 0818/0822 3SM SHRA BKN022
     FM082200 30009G14KT P6SM VCSH BKN040
      TEMPO 0822/0824 3SM SHRA BKN025
     FM090300 30005KT P6SM SCT050
     FM091500 30009G15KT P6SM BKN030 PROB30 0916/0918 4SM -SHRA=

USA.gov is the U.S. government's official web portal to all federal, state and local government web resources and services.